createdAt,value
2023-01-13T00:01:25.708Z,5.80
2023-01-13T00:03:53.255Z,5.80
2023-01-13T00:06:22.916Z,5.80
2023-01-13T00:08:51.270Z,5.90
2023-01-13T00:11:19.972Z,6.00
2023-01-13T00:13:47.361Z,6.10
2023-01-13T00:16:16.843Z,6.20
2023-01-13T00:18:45.569Z,6.30
2023-01-13T00:21:16.981Z,6.40
2023-01-13T00:23:44.986Z,6.50
2023-01-13T00:26:18.783Z,6.60
2023-01-13T00:28:46.144Z,6.60
2023-01-13T00:31:19.304Z,6.70
2023-01-13T00:33:49.074Z,6.80
2023-01-13T00:36:17.566Z,6.90
2023-01-13T00:38:45.038Z,7.00
2023-01-13T00:41:14.748Z,7.10
2023-01-13T00:43:42.501Z,7.10
2023-01-13T00:46:13.185Z,7.20
2023-01-13T00:48:41.024Z,7.10
2023-01-13T00:51:09.922Z,7.30
2023-01-13T00:53:40.227Z,7.30
2023-01-13T00:56:19.974Z,7.30
2023-01-13T00:58:57.000Z,7.40
2023-01-13T01:01:25.206Z,7.40
2023-01-13T01:03:53.978Z,7.40
2023-01-13T01:06:24.638Z,7.40
2023-01-13T01:08:53.064Z,7.40
2023-01-13T01:11:29.137Z,7.40
2023-01-13T01:13:58.541Z,7.50
2023-01-13T01:16:27.652Z,7.60
2023-01-13T01:18:56.208Z,7.60
2023-01-13T01:21:25.088Z,7.60
2023-01-13T01:23:52.413Z,7.70
2023-01-13T01:26:23.070Z,7.70
2023-01-13T01:28:51.023Z,7.70
2023-01-13T01:31:27.788Z,7.70
2023-01-13T01:33:55.473Z,7.80
2023-01-13T01:36:24.057Z,7.90
2023-01-13T01:38:51.263Z,7.90
2023-01-13T01:41:24.643Z,7.90
2023-01-13T01:44:05.841Z,7.90
2023-01-13T01:46:37.564Z,8.00
2023-01-13T01:49:19.590Z,8.00
2023-01-13T01:52:01.571Z,7.90
2023-01-13T01:54:35.824Z,7.90
2023-01-13T01:57:03.307Z,7.90
2023-01-13T01:59:33.750Z,8.00
2023-01-13T02:02:01.217Z,8.00
2023-01-13T02:04:33.708Z,8.00
2023-01-13T02:07:03.146Z,8.00
2023-01-13T02:09:30.911Z,8.10
2023-01-13T02:12:16.870Z,7.90
2023-01-13T02:14:45.420Z,8.00
2023-01-13T02:17:21.440Z,8.00
2023-01-13T02:20:10.304Z,8.00
2023-01-13T02:22:56.761Z,8.00
2023-01-13T02:25:55.705Z,7.90
2023-01-13T02:29:01.665Z,7.90
2023-01-13T02:31:44.562Z,7.90
2023-01-13T02:34:21.167Z,7.90
2023-01-13T02:37:20.687Z,7.90
2023-01-13T02:39:47.841Z,8.00
2023-01-13T02:42:42.143Z,8.00
2023-01-13T02:45:23.945Z,8.00
2023-01-13T02:47:55.696Z,7.90
2023-01-13T02:50:28.972Z,8.00
2023-01-13T02:53:00.625Z,7.90
2023-01-13T02:55:38.873Z,7.90
2023-01-13T02:58:09.209Z,7.90
2023-01-13T03:00:38.083Z,7.90
2023-01-13T03:03:05.326Z,7.80
2023-01-13T03:05:33.703Z,7.80
2023-01-13T03:08:17.867Z,7.70
2023-01-13T03:11:01.754Z,7.70
2023-01-13T03:13:52.640Z,7.70
2023-01-13T03:16:47.979Z,7.70
2023-01-13T03:19:29.118Z,7.70
2023-01-13T03:21:59.347Z,7.70
2023-01-13T03:24:42.055Z,7.70
2023-01-13T03:27:18.389Z,7.70
2023-01-13T03:30:04.159Z,7.70
2023-01-13T03:32:40.699Z,7.70
2023-01-13T03:35:32.532Z,7.70
2023-01-13T03:38:23.944Z,7.70
2023-01-13T03:40:56.862Z,7.70
2023-01-13T03:44:03.793Z,7.70
2023-01-13T03:46:58.735Z,7.80
2023-01-13T03:49:49.919Z,7.80
2023-01-13T03:52:25.018Z,7.70
2023-01-13T03:54:58.225Z,7.70
2023-01-13T03:57:31.291Z,7.80
2023-01-13T04:00:00.895Z,7.80
2023-01-13T04:02:54.749Z,7.80
2023-01-13T04:05:22.495Z,7.80
2023-01-13T04:07:52.463Z,7.70
2023-01-13T04:10:35.887Z,7.70
2023-01-13T04:13:07.710Z,7.70
2023-01-13T04:15:38.199Z,7.70
2023-01-13T04:18:22.454Z,7.60
2023-01-13T04:20:52.074Z,7.60
2023-01-13T04:23:20.093Z,7.70
2023-01-13T04:25:48.255Z,7.60
2023-01-13T04:28:16.913Z,7.70
2023-01-13T04:30:45.089Z,7.70
2023-01-13T04:33:13.474Z,7.80
2023-01-13T04:35:40.848Z,8.00
2023-01-13T04:38:11.648Z,8.00
2023-01-13T04:40:40.006Z,8.10
2023-01-13T04:43:07.738Z,8.10
2023-01-13T04:45:35.034Z,8.30
2023-01-13T04:48:02.474Z,8.40
2023-01-13T04:50:29.785Z,8.40
2023-01-13T04:52:58.250Z,8.50
2023-01-13T04:55:25.839Z,8.50
2023-01-13T04:57:53.532Z,8.50
2023-01-13T05:00:22.869Z,8.60
2023-01-13T05:02:51.251Z,8.70
2023-01-13T05:05:18.960Z,8.70
2023-01-13T05:07:46.497Z,8.70
2023-01-13T05:10:13.719Z,8.80
2023-01-13T05:12:59.503Z,8.80
2023-01-13T05:15:45.521Z,8.90
2023-01-13T05:18:13.146Z,8.90
2023-01-13T05:20:40.514Z,8.90
2023-01-13T05:23:26.378Z,9.00
2023-01-13T05:25:53.639Z,9.10
2023-01-13T05:28:21.019Z,9.10
2023-01-13T05:30:52.464Z,9.10
2023-01-13T05:33:23.014Z,9.10
2023-01-13T05:35:50.317Z,9.30
2023-01-13T05:38:18.537Z,9.20
2023-01-13T05:41:04.344Z,9.20
2023-01-13T05:43:32.936Z,9.30
2023-01-13T05:46:03.478Z,9.30
2023-01-13T05:48:36.498Z,9.40
2023-01-13T05:51:05.941Z,9.40
2023-01-13T05:53:33.386Z,9.40
2023-01-13T05:56:03.250Z,9.40
2023-01-13T05:58:30.469Z,9.80
2023-01-13T06:01:08.517Z,9.40
2023-01-13T06:03:36.458Z,9.50
2023-01-13T06:06:04.523Z,9.50
2023-01-13T06:08:32.847Z,9.50
2023-01-13T06:11:00.155Z,9.50
2023-01-13T06:13:27.697Z,9.50
2023-01-13T06:15:59.199Z,9.50
2023-01-13T06:18:27.580Z,9.50
2023-01-13T06:20:55.386Z,9.50
2023-01-13T06:23:23.347Z,9.50
2023-01-13T06:26:10.027Z,9.50
2023-01-13T06:28:37.276Z,9.60
2023-01-13T06:31:07.676Z,9.60
2023-01-13T06:33:43.026Z,9.60
2023-01-13T06:36:13.780Z,9.60
2023-01-13T06:38:44.515Z,9.60
2023-01-13T06:41:11.805Z,9.40
2023-01-13T06:43:40.074Z,9.60
2023-01-13T06:46:07.448Z,9.60
2023-01-13T06:48:35.363Z,9.70
2023-01-13T06:51:04.315Z,9.60
2023-01-13T06:53:31.781Z,9.60
2023-01-13T06:55:59.262Z,9.60
2023-01-13T06:58:26.692Z,9.50
2023-01-13T07:00:54.188Z,9.60
2023-01-13T07:03:21.547Z,9.60
2023-01-13T07:05:56.049Z,9.60
2023-01-13T07:08:24.470Z,9.60
2023-01-13T07:10:52.805Z,9.60
2023-01-13T07:13:38.807Z,9.50
2023-01-13T07:16:08.143Z,9.50
2023-01-13T07:18:36.308Z,9.50
2023-01-13T07:21:05.892Z,9.50
2023-01-13T07:23:41.241Z,9.50
2023-01-13T07:26:09.946Z,9.50
2023-01-13T07:28:40.337Z,9.50
2023-01-13T07:31:15.652Z,9.50
2023-01-13T07:33:43.246Z,9.50
2023-01-13T07:36:11.438Z,9.50
2023-01-13T07:38:39.818Z,9.50
2023-01-13T07:41:45.888Z,9.60
2023-01-13T07:44:13.196Z,9.50
2023-01-13T07:46:40.965Z,9.50
2023-01-13T07:49:09.471Z,9.50
2023-01-13T07:51:38.350Z,9.50
2023-01-13T07:54:06.208Z,9.60
2023-01-13T07:56:33.586Z,9.60
2023-01-13T07:59:01.590Z,9.60
2023-01-13T08:01:29.208Z,9.60
2023-01-13T08:03:57.608Z,9.60
2023-01-13T08:06:25.967Z,9.60
2023-01-13T08:08:54.859Z,9.60
2023-01-13T08:11:23.599Z,9.60
2023-01-13T08:13:54.883Z,9.60
2023-01-13T08:16:22.187Z,9.70
2023-01-13T08:18:49.609Z,9.70
2023-01-13T08:21:17.057Z,9.70
2023-01-13T08:23:45.295Z,9.70
2023-01-13T08:26:15.253Z,9.70
2023-01-13T08:28:42.857Z,9.70
2023-01-13T08:31:13.010Z,9.70
2023-01-13T08:33:41.029Z,9.80
2023-01-13T08:36:11.044Z,9.80
2023-01-13T08:38:38.846Z,9.80
2023-01-13T08:41:15.456Z,9.80
2023-01-13T08:43:42.687Z,9.90
2023-01-13T08:46:10.296Z,9.90
2023-01-13T08:48:38.037Z,9.90
2023-01-13T08:51:07.900Z,10.00
2023-01-13T08:53:35.102Z,10.00
2023-01-13T08:56:10.788Z,10.00
2023-01-13T08:58:38.336Z,10.00
2023-01-13T09:01:06.860Z,9.90
2023-01-13T09:03:34.427Z,10.10
2023-01-13T09:06:01.768Z,10.10
2023-01-13T09:08:29.137Z,10.20
2023-01-13T09:10:57.253Z,10.30
2023-01-13T09:13:24.458Z,10.30
2023-01-13T09:15:55.830Z,10.40
2023-01-13T09:18:23.214Z,10.40
2023-01-13T09:20:50.595Z,10.50
2023-01-13T09:23:17.999Z,10.50
2023-01-13T09:25:45.437Z,10.50
2023-01-13T09:28:13.085Z,10.60
2023-01-13T09:30:40.379Z,10.60
2023-01-13T09:33:26.214Z,10.70
2023-01-13T09:35:59.143Z,10.70
2023-01-13T09:38:26.723Z,10.80
2023-01-13T09:40:54.787Z,10.80
2023-01-13T09:43:54.353Z,10.80
2023-01-13T09:46:49.239Z,10.80
2023-01-13T09:49:33.426Z,10.90
2023-01-13T09:52:10.208Z,11.00
2023-01-13T09:54:44.147Z,11.00
2023-01-13T09:57:14.398Z,11.10
2023-01-13T09:59:42.679Z,11.10
2023-01-13T10:02:39.979Z,11.20
2023-01-13T10:05:12.528Z,11.30
2023-01-13T10:07:51.397Z,11.30
2023-01-13T10:10:33.719Z,11.30
2023-01-13T10:13:16.949Z,11.40
2023-01-13T10:15:53.972Z,11.40
2023-01-13T10:18:35.455Z,11.50
2023-01-13T10:21:14.290Z,11.50
2023-01-13T10:24:00.043Z,11.50
2023-01-13T10:26:51.875Z,11.50
2023-01-13T10:29:25.903Z,11.50
2023-01-13T10:31:58.668Z,11.40
2023-01-13T10:34:27.389Z,11.50
2023-01-13T10:37:06.004Z,11.50
2023-01-13T10:39:47.698Z,11.50
2023-01-13T10:42:21.952Z,11.40
2023-01-13T10:45:00.108Z,11.40
2023-01-13T10:47:29.078Z,11.50
2023-01-13T10:50:05.640Z,11.60
2023-01-13T10:52:38.027Z,11.50
2023-01-13T10:55:33.760Z,11.60
2023-01-13T10:58:21.201Z,11.60
2023-01-13T11:00:49.704Z,11.70
2023-01-13T11:03:18.694Z,11.80
2023-01-13T11:05:54.507Z,11.80
2023-01-13T11:08:27.942Z,11.70
2023-01-13T11:10:57.963Z,11.70
2023-01-13T11:13:33.529Z,11.50
2023-01-13T11:16:18.064Z,11.50
2023-01-13T11:19:12.026Z,11.40
2023-01-13T11:22:00.447Z,11.40
2023-01-13T11:24:46.079Z,11.50
2023-01-13T11:27:22.133Z,11.60
2023-01-13T11:30:24.715Z,11.60
2023-01-13T11:33:09.973Z,11.60
2023-01-13T11:35:54.978Z,11.70
2023-01-13T11:38:40.203Z,11.80
2023-01-13T11:41:30.551Z,11.80
2023-01-13T11:44:13.690Z,11.60
2023-01-13T11:46:41.429Z,11.40
2023-01-13T11:49:18.188Z,11.40
2023-01-13T11:51:59.588Z,11.30
2023-01-13T11:55:00.349Z,11.30
2023-01-13T11:57:51.822Z,11.30
2023-01-13T12:00:32.352Z,11.40
2023-01-13T12:03:27.307Z,11.40
2023-01-13T12:06:25.924Z,11.60
2023-01-13T12:09:15.733Z,11.60
2023-01-13T12:12:15.514Z,11.50
2023-01-13T12:15:07.469Z,11.40
2023-01-13T12:17:43.810Z,11.50
2023-01-13T12:20:44.571Z,11.50
2023-01-13T12:23:30.421Z,11.60
2023-01-13T12:26:18.470Z,11.60
2023-01-13T12:28:59.085Z,11.60
2023-01-13T12:31:27.857Z,11.60
2023-01-13T12:34:00.136Z,11.40
2023-01-13T12:37:25.106Z,11.30
2023-01-13T12:40:15.728Z,11.30
2023-01-13T12:43:12.537Z,11.40
2023-01-13T12:45:40.156Z,11.30
2023-01-13T12:48:27.326Z,11.20
2023-01-13T12:51:00.662Z,11.20
2023-01-13T12:53:36.309Z,11.10
2023-01-13T12:56:40.120Z,11.00
2023-01-13T12:59:19.590Z,10.80
2023-01-13T13:01:51.965Z,10.50
2023-01-13T13:04:41.304Z,10.40
2023-01-13T13:07:13.112Z,10.40
2023-01-13T13:09:49.298Z,10.40
2023-01-13T13:13:01.122Z,10.30
2023-01-13T13:15:34.081Z,10.30
2023-01-13T13:18:24.016Z,10.40
2023-01-13T13:21:09.049Z,10.50
2023-01-13T13:23:49.627Z,10.40
2023-01-13T13:26:25.851Z,10.40
2023-01-13T13:29:18.209Z,10.50
2023-01-13T13:31:51.500Z,10.50
2023-01-13T13:34:27.273Z,10.50
2023-01-13T13:37:29.055Z,10.50
2023-01-13T13:40:15.283Z,10.50
2023-01-13T13:43:13.323Z,10.50
2023-01-13T13:46:09.788Z,10.60
2023-01-13T13:48:37.258Z,10.70
2023-01-13T13:51:40.039Z,10.70
2023-01-13T13:54:20.069Z,10.60
2023-01-13T13:56:50.278Z,10.50
2023-01-13T13:59:26.671Z,10.50
2023-01-13T14:02:06.069Z,10.40
2023-01-13T14:04:40.668Z,10.30
2023-01-13T14:07:20.632Z,10.30
2023-01-13T14:09:56.524Z,10.30
2023-01-13T14:12:25.959Z,10.30
2023-01-13T14:14:56.771Z,10.30
2023-01-13T14:17:29.966Z,10.20
2023-01-13T14:20:05.855Z,9.80
2023-01-13T14:22:33.084Z,8.70
2023-01-13T14:25:01.794Z,7.50
2023-01-13T14:27:30.591Z,6.70
2023-01-13T14:47:34.546Z,5.30
2023-01-13T14:50:06.950Z,5.30
2023-01-13T14:52:37.214Z,5.40
2023-01-13T14:55:08.676Z,5.50
2023-01-13T14:57:38.524Z,5.40
2023-01-13T15:00:06.451Z,5.50
2023-01-13T15:02:53.500Z,5.50
2023-01-13T15:05:22.385Z,5.60
2023-01-13T15:08:02.696Z,5.70
2023-01-13T15:10:41.944Z,5.70
2023-01-13T15:13:22.657Z,5.90
2023-01-13T15:15:51.687Z,5.90
2023-01-13T15:18:19.146Z,5.90
2023-01-13T15:20:46.533Z,5.90
2023-01-13T15:23:13.965Z,6.00
2023-01-13T15:25:43.533Z,6.00
2023-01-13T15:28:25.955Z,5.90
2023-01-13T15:30:55.366Z,5.90
2023-01-13T15:33:22.949Z,5.70
2023-01-13T15:35:53.085Z,5.60
2023-01-13T15:38:22.480Z,5.60
2023-01-13T15:40:51.380Z,5.70
2023-01-13T15:43:40.265Z,5.70
2023-01-13T15:46:33.317Z,5.70
2023-01-13T15:49:08.653Z,5.80
2023-01-13T15:51:36.710Z,5.70
2023-01-13T15:54:04.151Z,5.80
2023-01-13T15:56:36.126Z,5.80
2023-01-13T15:59:05.296Z,5.80
2023-01-13T16:01:32.673Z,5.80
2023-01-13T16:03:59.906Z,5.80
2023-01-13T16:06:36.277Z,5.70
2023-01-13T16:09:04.708Z,5.70
2023-01-13T16:11:32.163Z,5.80
2023-01-13T16:13:59.872Z,5.60
2023-01-13T16:16:28.672Z,5.60
2023-01-13T16:18:56.482Z,5.70
2023-01-13T16:21:24.416Z,5.60
2023-01-13T16:23:52.116Z,5.70
2023-01-13T16:26:29.163Z,5.80
2023-01-13T16:28:57.908Z,5.80
2023-01-13T16:31:30.796Z,5.90
2023-01-13T16:33:59.516Z,5.90
2023-01-13T16:36:28.645Z,5.90
2023-01-13T16:38:57.820Z,6.00
2023-01-13T16:41:25.415Z,6.00
2023-01-13T16:43:52.987Z,6.00
2023-01-13T16:46:29.140Z,6.00
2023-01-13T16:49:01.257Z,6.00
2023-01-13T16:51:29.016Z,6.00
2023-01-13T16:53:56.583Z,6.10
2023-01-13T16:56:27.387Z,6.00
2023-01-13T16:58:57.924Z,6.00
2023-01-13T17:01:28.741Z,6.00
2023-01-13T17:03:57.291Z,5.90
2023-01-13T17:06:28.800Z,5.90
2023-01-13T17:09:01.676Z,6.00
2023-01-13T17:11:29.185Z,6.00
2023-01-13T17:13:56.559Z,6.10
2023-01-13T17:16:26.327Z,6.10
2023-01-13T17:18:54.164Z,6.00
2023-01-13T17:21:21.726Z,6.10
2023-01-13T17:23:49.086Z,6.30
2023-01-13T17:26:27.981Z,6.30
2023-01-13T17:28:55.233Z,6.10
2023-01-13T17:31:22.455Z,6.10
2023-01-13T17:33:49.847Z,6.10
2023-01-13T17:36:17.181Z,6.00
2023-01-13T17:38:44.540Z,6.10
2023-01-13T17:41:11.697Z,6.10
2023-01-13T17:43:38.890Z,6.10
2023-01-13T17:46:11.252Z,6.10
2023-01-13T17:48:38.797Z,6.10
2023-01-13T17:51:11.192Z,6.00
2023-01-13T17:53:40.703Z,6.00
2023-01-13T17:56:09.834Z,6.00
2023-01-13T17:58:38.261Z,5.90
2023-01-13T18:01:18.672Z,6.00
2023-01-13T18:03:46.476Z,6.00
2023-01-13T18:06:19.931Z,6.00
2023-01-13T18:08:47.749Z,6.00
2023-01-13T18:11:18.839Z,6.00
2023-01-13T18:13:50.331Z,5.90
2023-01-13T18:16:19.345Z,6.00
2023-01-13T18:18:48.652Z,6.00
2023-01-13T18:21:44.182Z,5.90
2023-01-13T18:24:31.615Z,5.80
2023-01-13T18:27:18.055Z,5.90
2023-01-13T18:29:54.469Z,6.00
2023-01-13T18:32:23.652Z,5.80
2023-01-13T18:35:01.626Z,5.70
2023-01-13T18:37:33.064Z,5.80
2023-01-13T18:40:00.425Z,5.70
2023-01-13T18:42:46.218Z,5.80
2023-01-13T18:45:13.448Z,5.60
2023-01-13T18:47:42.253Z,5.60
2023-01-13T18:50:15.119Z,5.60
2023-01-13T18:52:42.684Z,5.70
2023-01-13T18:55:10.179Z,6.10
2023-01-13T18:57:40.458Z,5.70
2023-01-13T19:00:13.596Z,5.70
2023-01-13T19:02:40.940Z,5.70
2023-01-13T19:05:09.399Z,5.70
2023-01-13T19:07:36.837Z,5.70
2023-01-13T19:10:08.031Z,5.70
2023-01-13T19:12:35.651Z,5.70
2023-01-13T19:15:03.131Z,5.70
2023-01-13T19:17:34.255Z,5.60
2023-01-13T19:20:02.265Z,5.60
2023-01-13T19:22:32.770Z,5.60
2023-01-13T19:25:01.141Z,5.60
2023-01-13T19:27:28.970Z,5.50
2023-01-13T19:30:00.254Z,5.40
2023-01-13T19:32:32.802Z,5.40
2023-01-13T19:35:00.965Z,5.40
2023-01-13T19:37:30.438Z,5.30
2023-01-13T19:40:01.532Z,5.20
2023-01-13T19:42:47.312Z,5.30
2023-01-13T19:45:27.758Z,5.30
2023-01-13T19:48:04.792Z,5.20
2023-01-13T19:50:36.064Z,5.20
2023-01-13T19:53:03.372Z,5.20
2023-01-13T19:55:31.817Z,5.20
2023-01-13T19:57:59.355Z,5.20
2023-01-13T20:00:26.996Z,5.30
2023-01-13T20:02:56.845Z,5.30
2023-01-13T20:05:26.083Z,5.30
2023-01-13T20:07:53.980Z,5.50
2023-01-13T20:10:22.666Z,5.50
2023-01-13T20:12:49.949Z,5.50
2023-01-13T20:15:17.641Z,5.50
2023-01-13T20:17:44.979Z,5.60
2023-01-13T20:20:13.457Z,5.60
2023-01-13T20:22:41.287Z,5.60
2023-01-13T20:25:09.054Z,5.70
2023-01-13T20:28:10.666Z,5.80
2023-01-13T20:31:06.116Z,5.80
2023-01-13T20:33:33.307Z,5.80
2023-01-13T20:36:00.550Z,5.80
2023-01-13T20:38:28.044Z,5.70
2023-01-13T20:41:22.034Z,5.60
2023-01-13T20:43:50.059Z,5.40
2023-01-13T20:46:17.329Z,5.20
2023-01-13T20:48:44.871Z,4.90
2023-01-13T20:51:13.440Z,4.80
2023-01-13T20:53:41.544Z,4.80
2023-01-13T20:56:09.833Z,4.80
2023-01-13T20:58:40.173Z,4.70
2023-01-13T21:01:07.634Z,4.80
2023-01-13T21:03:35.228Z,4.80
2023-01-13T21:06:02.471Z,4.80
2023-01-13T21:08:29.815Z,4.90
2023-01-13T21:11:03.745Z,4.90
2023-01-13T21:13:51.461Z,4.80
2023-01-13T21:16:22.090Z,4.80
2023-01-13T21:19:07.787Z,4.80
2023-01-13T21:21:35.288Z,4.80
2023-01-13T21:24:05.480Z,4.80
2023-01-13T21:26:33.603Z,4.80
2023-01-13T21:29:02.483Z,4.80
2023-01-13T21:31:29.930Z,4.70
2023-01-13T21:33:59.457Z,4.70
2023-01-13T21:36:27.924Z,4.70
2023-01-13T21:38:57.222Z,4.60
2023-01-13T21:41:44.229Z,4.60
2023-01-13T21:44:35.538Z,4.70
2023-01-13T21:47:21.747Z,4.70
2023-01-13T21:49:48.984Z,4.60
2023-01-13T21:52:16.648Z,4.50
2023-01-13T21:55:02.712Z,4.50
2023-01-13T21:57:29.938Z,4.40
2023-01-13T21:59:57.090Z,4.30
2023-01-13T22:02:35.411Z,4.30
2023-01-13T22:05:05.552Z,4.20
2023-01-13T22:07:35.225Z,4.20
2023-01-13T22:10:03.656Z,4.10
2023-01-13T22:12:31.153Z,4.20
2023-01-13T22:14:58.504Z,4.10
2023-01-13T22:17:27.251Z,4.00
2023-01-13T22:19:57.360Z,4.00
2023-01-13T22:22:26.035Z,4.00
2023-01-13T22:24:54.114Z,4.00
2023-01-13T22:27:23.936Z,4.00
2023-01-13T22:29:52.698Z,4.00
2023-01-13T22:32:21.146Z,4.00
2023-01-13T22:34:48.784Z,4.00
2023-01-13T22:37:16.221Z,4.00
2023-01-13T22:39:43.751Z,3.90
2023-01-13T22:42:11.768Z,3.90
2023-01-13T22:44:39.182Z,3.90
2023-01-13T22:47:08.481Z,3.80
2023-01-13T22:49:35.886Z,3.90
2023-01-13T22:52:03.264Z,3.80
2023-01-13T22:54:30.472Z,3.80
2023-01-13T22:56:57.741Z,3.70
2023-01-13T22:59:25.367Z,3.80
2023-01-13T23:01:52.846Z,3.80
2023-01-13T23:04:20.099Z,3.80
2023-01-13T23:06:47.515Z,3.70
2023-01-13T23:09:14.740Z,3.70
2023-01-13T23:11:42.306Z,3.70
2023-01-13T23:14:11.805Z,3.70
2023-01-13T23:16:40.625Z,3.70
2023-01-13T23:19:10.115Z,3.70
2023-01-13T23:21:38.077Z,3.80
2023-01-13T23:24:07.012Z,3.80
2023-01-13T23:26:35.129Z,3.90
2023-01-13T23:29:05.179Z,4.00
2023-01-13T23:31:32.895Z,4.00
2023-01-13T23:34:00.590Z,4.00
2023-01-13T23:36:29.062Z,4.00
2023-01-13T23:38:59.373Z,4.00
2023-01-13T23:41:28.084Z,4.00
2023-01-13T23:44:00.526Z,4.00
2023-01-13T23:46:30.380Z,4.10
2023-01-13T23:48:57.794Z,4.10
2023-01-13T23:51:27.510Z,4.10
2023-01-13T23:53:54.885Z,4.10
2023-01-13T23:56:24.951Z,4.10
2023-01-13T23:58:57.733Z,4.20
